createdAt,value
2023-04-27T00:00:40.763Z,9.53
2023-04-27T00:03:09.136Z,8.60
2023-04-27T00:05:39.370Z,12.00
2023-04-27T00:08:08.332Z,8.20
2023-04-27T00:10:36.618Z,12.07
2023-04-27T00:13:04.866Z,12.27
2023-04-27T00:15:33.093Z,9.87
2023-04-27T00:18:02.837Z,11.77
2023-04-27T00:20:30.975Z,10.20
2023-04-27T00:22:59.056Z,11.70
2023-04-27T00:25:27.214Z,11.63
2023-04-27T00:27:55.291Z,8.30
2023-04-27T00:30:23.431Z,9.40
2023-04-27T00:32:51.582Z,7.80
2023-04-27T00:35:21.105Z,11.83
2023-04-27T00:37:49.148Z,11.07
2023-04-27T00:40:17.209Z,13.30
2023-04-27T00:42:45.640Z,9.60
2023-04-27T00:45:14.440Z,10.53
2023-04-27T00:47:43.303Z,14.40
2023-04-27T00:50:12.208Z,12.03
2023-04-27T00:52:42.621Z,12.50
2023-04-27T00:55:10.798Z,10.97
2023-04-27T00:57:38.991Z,15.47
2023-04-27T01:00:10.870Z,12.53
2023-04-27T01:02:40.234Z,11.60
2023-04-27T01:05:09.444Z,10.50
2023-04-27T01:07:38.990Z,14.60
2023-04-27T01:10:09.785Z,11.30
2023-04-27T01:12:38.265Z,8.67
2023-04-27T01:15:08.062Z,8.20
2023-04-27T01:17:36.413Z,8.53
2023-04-27T01:20:07.498Z,8.40
2023-04-27T01:22:35.927Z,10.20
2023-04-27T01:25:06.415Z,7.60
2023-04-27T01:27:34.598Z,7.63
2023-04-27T01:30:03.514Z,6.83
2023-04-27T01:32:31.611Z,4.37
2023-04-27T01:34:59.703Z,4.97
2023-04-27T01:37:28.295Z,7.93
2023-04-27T01:39:56.454Z,8.20
2023-04-27T01:42:26.044Z,7.30
2023-04-27T01:44:54.746Z,4.50
2023-04-27T01:47:22.826Z,5.80
2023-04-27T01:49:51.221Z,4.40
2023-04-27T01:52:19.313Z,7.60
2023-04-27T01:54:47.439Z,3.93
2023-04-27T01:57:16.253Z,3.60
2023-04-27T01:59:45.734Z,4.47
2023-04-27T02:02:13.879Z,5.10
2023-04-27T02:04:43.353Z,4.87
2023-04-27T02:07:11.905Z,6.50
2023-04-27T02:09:40.023Z,5.23
2023-04-27T02:12:08.321Z,3.93
2023-04-27T02:14:36.397Z,4.47
2023-04-27T02:17:06.172Z,3.43
2023-04-27T02:19:34.304Z,5.50
2023-04-27T02:22:02.458Z,5.33
2023-04-27T02:24:30.611Z,4.03
2023-04-27T02:26:58.658Z,4.70
2023-04-27T02:29:31.418Z,4.53
2023-04-27T02:32:00.026Z,3.40
2023-04-27T02:34:29.570Z,4.63
2023-04-27T02:36:57.632Z,5.00
2023-04-27T02:39:25.719Z,3.33
2023-04-27T02:41:53.793Z,5.47
2023-04-27T02:44:21.848Z,4.40
2023-04-27T02:46:50.922Z,7.70
2023-04-27T02:49:19.034Z,6.67
2023-04-27T02:51:48.506Z,4.80
2023-04-27T02:54:16.598Z,9.37
2023-04-27T02:56:44.748Z,3.73
2023-04-27T02:59:13.026Z,3.70
2023-04-27T03:01:41.518Z,4.20
2023-04-27T03:04:10.000Z,3.87
2023-04-27T03:06:38.258Z,7.37
2023-04-27T03:09:07.705Z,3.60
2023-04-27T03:11:37.328Z,4.60
2023-04-27T03:14:06.209Z,3.70
2023-04-27T03:16:34.618Z,10.03
2023-04-27T03:19:03.743Z,5.23
2023-04-27T03:21:31.878Z,5.60
2023-04-27T03:23:59.972Z,5.47
2023-04-27T03:26:29.463Z,5.10
2023-04-27T03:28:57.504Z,5.17
2023-04-27T03:31:25.647Z,3.77
2023-04-27T03:33:53.758Z,4.70
2023-04-27T03:36:21.802Z,3.80
2023-04-27T03:38:49.863Z,9.07
2023-04-27T03:41:17.909Z,4.53
2023-04-27T03:43:47.661Z,10.67
2023-04-27T03:46:15.791Z,6.87
2023-04-27T03:48:44.106Z,6.33
2023-04-27T03:51:12.193Z,6.37
2023-04-27T03:53:40.227Z,5.70
2023-04-27T03:56:08.512Z,6.50
2023-04-27T03:58:36.618Z,5.67
2023-04-27T04:01:06.474Z,6.10
2023-04-27T04:03:34.646Z,6.63
2023-04-27T04:06:03.690Z,6.43
2023-04-27T04:08:33.040Z,6.67
2023-04-27T04:11:01.236Z,4.90
2023-04-27T04:13:29.355Z,6.13
2023-04-27T04:16:06.935Z,4.93
2023-04-27T04:18:35.253Z,6.97
2023-04-27T04:21:03.624Z,7.70
2023-04-27T04:23:32.893Z,5.07
2023-04-27T04:26:02.185Z,6.80
2023-04-27T04:28:30.750Z,12.90
2023-04-27T04:30:59.121Z,8.33
2023-04-27T04:33:28.643Z,4.80
2023-04-27T04:35:56.745Z,4.87
2023-04-27T04:38:24.773Z,9.57
2023-04-27T04:40:53.346Z,8.40
2023-04-27T04:43:21.542Z,4.40
2023-04-27T04:45:49.603Z,7.53
2023-04-27T04:48:17.724Z,4.60
2023-04-27T04:50:47.238Z,5.70
2023-04-27T04:53:15.353Z,3.83
2023-04-27T04:55:43.457Z,6.30
2023-04-27T04:58:11.646Z,3.43
2023-04-27T05:00:39.683Z,5.30
2023-04-27T05:03:08.259Z,6.73
2023-04-27T05:05:36.417Z,8.90
2023-04-27T05:08:06.181Z,5.10
2023-04-27T05:10:34.255Z,7.07
2023-04-27T05:13:02.306Z,5.60
2023-04-27T05:15:30.415Z,6.00
2023-04-27T05:17:58.562Z,8.03
2023-04-27T05:20:26.674Z,5.83
2023-04-27T05:22:54.709Z,6.90
2023-04-27T05:25:24.150Z,6.93
2023-04-27T05:27:52.233Z,8.10
2023-04-27T05:30:20.344Z,5.97
2023-04-27T05:32:48.732Z,7.40
2023-04-27T05:35:16.978Z,5.80
2023-04-27T05:37:45.147Z,6.37
2023-04-27T05:40:13.519Z,5.43
2023-04-27T05:42:42.919Z,9.00
2023-04-27T05:45:11.548Z,8.03
2023-04-27T05:47:39.896Z,5.80
2023-04-27T05:50:08.882Z,6.57
2023-04-27T05:52:38.337Z,6.93
2023-04-27T05:55:08.118Z,11.23
2023-04-27T05:57:36.283Z,4.93
2023-04-27T06:00:10.668Z,5.63
2023-04-27T06:02:38.833Z,7.70
2023-04-27T06:05:08.066Z,6.53
2023-04-27T06:07:37.545Z,4.97
2023-04-27T06:10:06.231Z,9.13
2023-04-27T06:12:34.301Z,7.37
2023-04-27T06:15:03.841Z,6.17
2023-04-27T06:17:33.384Z,7.00
2023-04-27T06:20:01.504Z,7.87
2023-04-27T06:22:29.596Z,10.37
2023-04-27T06:24:57.648Z,10.80
2023-04-27T06:27:25.787Z,12.20
2023-04-27T06:29:53.838Z,13.37
2023-04-27T06:32:22.007Z,14.40
2023-04-27T06:34:51.614Z,10.80
2023-04-27T06:37:19.681Z,9.70
2023-04-27T06:39:48.062Z,13.00
2023-04-27T06:42:16.329Z,10.80
2023-04-27T06:44:44.368Z,14.30
2023-04-27T06:47:12.438Z,13.13
2023-04-27T06:49:40.623Z,14.53
2023-04-27T06:52:10.077Z,14.70
2023-04-27T06:54:38.124Z,13.50
2023-04-27T06:57:06.635Z,15.93
2023-04-27T06:59:34.702Z,15.50
2023-04-27T07:02:03.173Z,15.07
2023-04-27T07:04:31.533Z,11.60
2023-04-27T07:06:59.871Z,13.40
2023-04-27T07:09:30.662Z,15.80
2023-04-27T07:12:01.179Z,15.43
2023-04-27T07:14:29.247Z,16.23
2023-04-27T07:16:57.970Z,14.07
2023-04-27T07:19:26.129Z,13.80
2023-04-27T07:21:54.167Z,19.30
2023-04-27T07:24:22.318Z,17.40
2023-04-27T07:26:51.728Z,13.17
2023-04-27T07:29:27.150Z,17.30
2023-04-27T07:31:56.729Z,14.70
2023-04-27T07:34:24.946Z,15.10
2023-04-27T07:36:54.261Z,12.67
2023-04-27T07:39:22.706Z,18.77
2023-04-27T07:41:52.694Z,15.87
2023-04-27T07:44:20.991Z,14.90
2023-04-27T07:46:50.213Z,16.57
2023-04-27T07:49:18.356Z,18.73
2023-04-27T07:51:46.452Z,18.60
2023-04-27T07:54:14.694Z,17.90
2023-04-27T07:56:44.016Z,18.60
2023-04-27T07:59:14.898Z,17.63
2023-04-27T08:01:43.276Z,18.77
2023-04-27T08:04:13.008Z,18.07
2023-04-27T08:06:42.068Z,17.13
2023-04-27T08:09:10.418Z,19.80
2023-04-27T08:11:38.562Z,16.57
2023-04-27T08:14:09.017Z,16.83
2023-04-27T08:16:38.512Z,18.40
2023-04-27T08:19:06.672Z,15.03
2023-04-27T08:21:34.988Z,14.00
2023-04-27T08:24:03.104Z,14.63
2023-04-27T08:26:31.379Z,17.53
2023-04-27T08:28:59.863Z,17.03
2023-04-27T08:31:28.289Z,16.83
2023-04-27T08:33:58.776Z,17.87
2023-04-27T08:36:28.793Z,15.70
2023-04-27T08:38:56.857Z,15.03
2023-04-27T08:41:25.646Z,16.00
2023-04-27T08:43:53.980Z,19.80
2023-04-27T08:46:22.459Z,16.60
2023-04-27T08:48:52.139Z,17.53
2023-04-27T08:51:22.692Z,18.40
2023-04-27T08:53:52.478Z,16.50
2023-04-27T08:56:20.865Z,21.43
2023-04-27T08:58:48.912Z,16.40
2023-04-27T09:01:17.167Z,20.53
2023-04-27T09:03:46.793Z,17.50
2023-04-27T09:06:16.574Z,19.80
2023-04-27T09:08:50.615Z,17.07
2023-04-27T09:11:31.256Z,18.97
2023-04-27T09:14:00.940Z,15.40
2023-04-27T09:16:30.490Z,21.90
2023-04-27T09:18:59.568Z,21.50
2023-04-27T09:21:28.745Z,14.83
2023-04-27T09:23:58.512Z,17.53
2023-04-27T09:26:28.024Z,15.93
2023-04-27T09:28:57.763Z,9.13
2023-04-27T09:31:32.862Z,15.40
2023-04-27T09:34:01.269Z,12.37
2023-04-27T09:36:30.528Z,9.20
2023-04-27T09:39:04.711Z,12.80
2023-04-27T09:41:33.677Z,9.77
2023-04-27T09:44:02.949Z,8.37
2023-04-27T09:46:34.047Z,10.60
2023-04-27T09:49:05.598Z,11.40
2023-04-27T09:51:35.192Z,12.90
2023-04-27T09:54:05.885Z,9.23
2023-04-27T09:56:47.556Z,8.10
2023-04-27T09:59:34.113Z,9.77
2023-04-27T10:02:17.028Z,8.90
2023-04-27T10:05:11.608Z,7.23
2023-04-27T10:07:41.260Z,6.10
2023-04-27T10:10:18.903Z,8.73
2023-04-27T10:12:58.032Z,8.70
2023-04-27T10:15:30.463Z,7.03
2023-04-27T10:18:06.041Z,5.27
2023-04-27T10:20:37.078Z,5.43
2023-04-27T10:23:05.674Z,6.97
2023-04-27T10:25:41.345Z,11.43
2023-04-27T10:28:09.548Z,7.27
2023-04-27T10:30:39.224Z,8.07
2023-04-27T10:33:09.547Z,6.60
2023-04-27T10:35:39.072Z,7.30
2023-04-27T10:38:08.586Z,8.33
2023-04-27T10:40:37.269Z,4.50
2023-04-27T10:43:14.405Z,4.63
2023-04-27T10:45:43.677Z,5.00
2023-04-27T10:48:15.777Z,4.37
2023-04-27T10:50:44.886Z,4.40
2023-04-27T10:53:13.073Z,4.23
2023-04-27T10:55:41.291Z,4.33
2023-04-27T10:58:09.464Z,10.93
2023-04-27T11:00:44.172Z,5.90
2023-04-27T11:03:16.470Z,3.83
2023-04-27T11:05:45.765Z,3.10
2023-04-27T11:08:15.504Z,3.73
2023-04-27T11:10:46.256Z,4.53
2023-04-27T11:13:15.595Z,3.50
2023-04-27T11:15:49.899Z,4.30
2023-04-27T11:18:19.171Z,5.13
2023-04-27T11:20:49.484Z,6.17
2023-04-27T11:23:28.899Z,4.30
2023-04-27T11:25:57.656Z,8.57
2023-04-27T11:28:26.163Z,6.30
2023-04-27T11:30:59.361Z,8.50
2023-04-27T11:33:27.732Z,8.13
2023-04-27T11:35:56.465Z,6.13
2023-04-27T11:38:25.091Z,3.87
2023-04-27T11:41:04.529Z,4.50
2023-04-27T11:43:33.430Z,5.53
2023-04-27T11:46:06.076Z,6.00
2023-04-27T11:48:34.327Z,5.10
2023-04-27T11:51:02.467Z,4.53
2023-04-27T11:53:32.383Z,4.30
2023-04-27T11:56:02.591Z,6.00
2023-04-27T11:58:31.170Z,7.73
2023-04-27T12:00:59.316Z,5.30
2023-04-27T12:03:30.271Z,4.43
2023-04-27T12:06:11.368Z,5.00
2023-04-27T12:08:46.870Z,4.40
2023-04-27T12:11:15.068Z,6.37
2023-04-27T12:13:43.174Z,6.60
2023-04-27T12:16:11.483Z,4.70
2023-04-27T12:18:41.060Z,5.63
2023-04-27T12:21:10.332Z,9.53
2023-04-27T12:23:38.385Z,5.00
2023-04-27T12:26:06.561Z,5.37
2023-04-27T12:28:34.628Z,8.20
2023-04-27T12:31:05.452Z,4.90
2023-04-27T12:33:33.768Z,5.47
2023-04-27T12:36:03.214Z,5.03
2023-04-27T12:38:31.303Z,6.93
2023-04-27T12:41:01.378Z,5.63
2023-04-27T12:43:29.620Z,6.43
2023-04-27T12:45:57.805Z,5.27
2023-04-27T12:48:26.430Z,7.67
2023-04-27T12:50:54.549Z,3.20
2023-04-27T12:53:23.976Z,10.37
2023-04-27T12:55:53.500Z,4.00
2023-04-27T12:58:21.667Z,7.20
2023-04-27T13:00:49.773Z,3.63
2023-04-27T13:03:18.024Z,4.47
2023-04-27T13:05:46.325Z,5.80
2023-04-27T13:08:14.398Z,3.80
2023-04-27T13:10:43.821Z,3.17
2023-04-27T13:13:12.002Z,4.97
2023-04-27T13:15:40.136Z,4.60
2023-04-27T13:18:08.295Z,3.83
2023-04-27T13:20:36.435Z,4.50
2023-04-27T13:23:05.991Z,3.70
2023-04-27T13:25:34.234Z,5.03
2023-04-27T13:28:03.901Z,3.70
2023-04-27T13:30:32.322Z,2.93
2023-04-27T13:33:14.175Z,3.07
2023-04-27T13:35:49.065Z,11.30
2023-04-27T13:38:17.135Z,4.50
2023-04-27T13:40:45.269Z,4.40
2023-04-27T13:43:14.730Z,9.07
2023-04-27T13:45:43.538Z,7.63
2023-04-27T13:48:11.668Z,4.33
2023-04-27T13:50:39.863Z,4.73
2023-04-27T13:53:08.714Z,5.70
2023-04-27T13:55:37.209Z,6.27
2023-04-27T13:58:05.816Z,3.40
2023-04-27T14:00:35.567Z,4.40
2023-04-27T14:03:04.938Z,8.70
2023-04-27T14:05:33.260Z,3.83
2023-04-27T14:08:01.390Z,4.00
2023-04-27T14:10:29.460Z,5.73
2023-04-27T14:12:58.203Z,3.30
2023-04-27T14:15:26.284Z,6.63
2023-04-27T14:17:55.811Z,5.47
2023-04-27T14:20:24.622Z,3.23
2023-04-27T14:22:52.722Z,4.87
2023-04-27T14:25:20.839Z,6.97
2023-04-27T14:27:48.922Z,8.17
2023-04-27T14:30:17.148Z,4.30
2023-04-27T14:32:45.554Z,4.73
2023-04-27T14:35:14.993Z,6.70
2023-04-27T14:37:43.232Z,7.83
2023-04-27T14:40:12.040Z,9.77
2023-04-27T14:42:40.308Z,3.33
2023-04-27T14:45:09.707Z,2.87
2023-04-27T14:47:38.237Z,2.93
2023-04-27T14:50:07.602Z,3.73
2023-04-27T14:52:37.104Z,3.30
2023-04-27T14:55:05.594Z,4.47
2023-04-27T14:57:33.697Z,5.07
2023-04-27T15:00:02.090Z,5.67
2023-04-27T15:02:32.407Z,4.90
2023-04-27T15:05:02.060Z,4.43
2023-04-27T15:07:30.221Z,4.17
2023-04-27T15:09:59.690Z,3.00
2023-04-27T15:12:27.823Z,3.90
2023-04-27T15:14:55.865Z,3.70
2023-04-27T15:17:24.129Z,4.73
2023-04-27T15:19:52.763Z,7.90
2023-04-27T15:22:20.913Z,2.90
2023-04-27T15:24:48.946Z,4.90
2023-04-27T15:27:18.398Z,2.80
2023-04-27T15:29:46.503Z,5.70
2023-04-27T15:32:14.552Z,2.70
2023-04-27T15:34:44.570Z,7.53
2023-04-27T15:37:12.958Z,3.13
2023-04-27T15:39:42.048Z,3.87
2023-04-27T15:42:10.176Z,3.57
2023-04-27T15:44:39.864Z,3.60
2023-04-27T15:47:08.067Z,3.70
2023-04-27T15:49:42.769Z,4.07
2023-04-27T15:52:21.984Z,4.70
2023-04-27T15:54:50.064Z,4.23
2023-04-27T15:57:18.624Z,2.97
2023-04-27T15:59:48.063Z,3.47
2023-04-27T16:02:16.320Z,3.23
2023-04-27T16:04:44.717Z,4.50
2023-04-27T16:07:13.885Z,5.23
2023-04-27T16:09:42.047Z,3.83
2023-04-27T16:12:10.193Z,6.90
2023-04-27T16:26:29.121Z,4.47
2023-04-27T16:28:57.626Z,2.20
2023-04-27T16:31:25.700Z,7.33
2023-04-27T16:33:58.095Z,2.30
2023-04-27T16:36:26.149Z,4.40
2023-04-27T16:38:54.280Z,2.80
2023-04-27T16:41:22.607Z,3.73
2023-04-27T16:43:51.160Z,3.90
2023-04-27T16:46:19.288Z,3.50
2023-04-27T16:48:47.468Z,6.30
2023-04-27T16:51:16.906Z,3.97
2023-04-27T16:53:44.949Z,4.33
2023-04-27T16:56:13.750Z,2.90
2023-04-27T16:58:41.942Z,3.03
2023-04-27T17:01:10.117Z,4.10
2023-04-27T17:03:38.418Z,5.63
2023-04-27T17:06:06.813Z,6.13
2023-04-27T17:08:36.374Z,5.97
2023-04-27T17:14:00.140Z,3.27
2023-04-27T17:16:28.558Z,4.67
2023-04-27T17:18:57.261Z,4.23
2023-04-27T17:21:27.483Z,3.70
2023-04-27T17:23:57.004Z,3.60
2023-04-27T17:26:25.105Z,3.57
2023-04-27T17:28:55.004Z,5.77
2023-04-27T17:31:23.132Z,5.47
2023-04-27T17:33:51.241Z,3.53
2023-04-27T17:36:19.388Z,4.67
2023-04-27T17:38:48.704Z,5.60
2023-04-27T17:41:18.118Z,4.40
2023-04-27T17:43:46.228Z,2.27
2023-04-27T17:46:14.655Z,4.77
2023-04-27T17:48:44.130Z,4.07
2023-04-27T17:51:12.190Z,3.50
2023-04-27T17:53:40.221Z,4.63
2023-04-27T17:56:08.494Z,4.30
2023-04-27T17:58:37.949Z,2.87
2023-04-27T18:01:09.073Z,5.57
2023-04-27T18:03:37.539Z,4.10
2023-04-27T18:06:05.835Z,2.73
2023-04-27T18:08:33.924Z,4.77
2023-04-27T18:11:01.985Z,3.27
2023-04-27T18:13:31.859Z,3.47
2023-04-27T18:16:01.473Z,5.83
2023-04-27T18:18:29.617Z,3.27
2023-04-27T18:20:57.669Z,4.60
2023-04-27T18:23:25.913Z,3.37
2023-04-27T18:25:55.523Z,5.03
2023-04-27T18:28:23.606Z,3.63
2023-04-27T18:30:51.909Z,6.90
2023-04-27T18:33:21.401Z,4.73
2023-04-27T18:35:49.686Z,6.30
2023-04-27T18:38:17.731Z,10.30
2023-04-27T18:40:45.864Z,3.47
2023-04-27T18:43:13.944Z,4.03
2023-04-27T18:45:42.049Z,11.17
2023-04-27T18:48:10.209Z,4.70
2023-04-27T18:50:39.696Z,5.10
2023-04-27T18:53:07.765Z,3.47
2023-04-27T18:55:35.941Z,3.93
2023-04-27T18:58:04.014Z,4.40
2023-04-27T19:00:32.381Z,6.23
2023-04-27T19:03:00.567Z,5.97
2023-04-27T19:05:28.807Z,5.77
2023-04-27T19:07:58.313Z,6.77
2023-04-27T19:10:26.382Z,4.43
2023-04-27T19:12:56.016Z,2.80
2023-04-27T19:15:24.119Z,3.60
2023-04-27T19:18:02.812Z,4.63
2023-04-27T19:20:37.764Z,7.30
2023-04-27T19:23:07.991Z,5.97
2023-04-27T19:25:36.568Z,10.13
2023-04-27T19:28:06.075Z,5.03
2023-04-27T19:30:34.204Z,10.93
2023-04-27T19:33:02.437Z,5.13
2023-04-27T19:35:30.607Z,4.50
2023-04-27T19:37:58.854Z,3.37
2023-04-27T19:40:28.336Z,3.87
2023-04-27T19:42:56.440Z,3.43
2023-04-27T19:45:24.754Z,4.87
2023-04-27T19:48:36.476Z,3.70
2023-04-27T19:51:08.951Z,3.60
2023-04-27T19:53:37.106Z,4.93
2023-04-27T19:56:07.383Z,8.23
2023-04-27T19:58:35.938Z,6.17
2023-04-27T20:01:04.457Z,3.53
2023-04-27T20:03:32.787Z,4.90
2023-04-27T20:06:01.259Z,4.87
2023-04-27T20:08:29.620Z,4.90
2023-04-27T20:10:57.684Z,6.60
2023-04-27T20:13:27.207Z,4.23
2023-04-27T20:15:55.330Z,4.43
2023-04-27T20:18:24.986Z,7.07
2023-04-27T20:20:53.038Z,6.67
2023-04-27T20:23:21.131Z,10.07
2023-04-27T20:25:49.193Z,4.47
2023-04-27T20:28:17.255Z,5.70
2023-04-27T20:30:46.845Z,5.03
2023-04-27T20:33:15.979Z,10.27
2023-04-27T20:35:44.067Z,5.73
2023-04-27T20:38:12.394Z,8.23
2023-04-27T20:40:42.072Z,7.73
2023-04-27T20:43:10.306Z,6.17
2023-04-27T20:45:38.423Z,5.30
2023-04-27T20:48:11.684Z,5.10
2023-04-27T20:50:40.376Z,4.80
2023-04-27T20:53:08.465Z,6.93
2023-04-27T20:55:37.057Z,5.40
2023-04-27T20:58:05.152Z,5.80
2023-04-27T21:00:33.209Z,6.13
2023-04-27T21:03:01.392Z,6.30
2023-04-27T21:05:31.690Z,5.90
2023-04-27T21:07:59.837Z,12.43
2023-04-27T21:10:27.971Z,12.20
2023-04-27T21:12:56.020Z,4.70
2023-04-27T21:15:24.282Z,9.00
2023-04-27T21:17:52.392Z,9.10
2023-04-27T21:20:20.838Z,6.30
2023-04-27T21:22:50.307Z,7.93
2023-04-27T21:25:18.441Z,7.00
2023-04-27T21:27:46.521Z,4.63
2023-04-27T21:30:14.962Z,7.73
2023-04-27T21:32:43.052Z,5.67
2023-04-27T21:35:11.498Z,7.80
2023-04-27T21:37:39.570Z,7.07
2023-04-27T21:40:10.163Z,7.77
2023-04-27T21:42:38.211Z,6.93
2023-04-27T21:45:07.174Z,7.87
2023-04-27T21:47:35.441Z,7.70
2023-04-27T21:50:03.525Z,8.20
2023-04-27T21:52:31.616Z,10.23
2023-04-27T21:54:59.712Z,6.13
2023-04-27T21:57:29.782Z,7.53
2023-04-27T21:59:57.870Z,7.17
2023-04-27T22:02:26.109Z,5.10
2023-04-27T22:04:54.327Z,8.20
2023-04-27T22:07:22.476Z,9.40
2023-04-27T22:09:50.503Z,7.40
2023-04-27T22:12:18.644Z,9.17
2023-04-27T22:14:48.302Z,10.20
2023-04-27T22:17:16.354Z,17.63
2023-04-27T22:19:44.466Z,9.37
2023-04-27T22:22:12.738Z,8.77
2023-04-27T22:24:40.860Z,8.90
2023-04-27T22:27:08.938Z,6.70
2023-04-27T22:29:37.135Z,9.67
2023-04-27T22:32:07.435Z,10.80
2023-04-27T22:34:36.057Z,9.07
2023-04-27T22:37:04.155Z,9.13
2023-04-27T22:39:32.592Z,10.07
2023-04-27T22:42:00.822Z,6.97
2023-04-27T22:44:28.873Z,10.80
2023-04-27T22:46:57.294Z,12.67
2023-04-27T22:49:26.816Z,9.30
2023-04-27T22:51:57.578Z,12.30
2023-04-27T22:54:25.741Z,7.70
2023-04-27T22:56:53.816Z,11.57
2023-04-27T22:59:23.066Z,7.43
2023-04-27T23:01:51.681Z,7.90
2023-04-27T23:04:20.801Z,9.33
2023-04-27T23:06:53.634Z,9.70
2023-04-27T23:09:21.882Z,9.33
2023-04-27T23:11:50.915Z,12.97
2023-04-27T23:14:19.233Z,10.83
2023-04-27T23:16:47.504Z,14.33
2023-04-27T23:19:15.604Z,9.77
2023-04-27T23:21:43.649Z,9.60
2023-04-27T23:24:13.339Z,14.60
2023-04-27T23:26:41.579Z,8.50
2023-04-27T23:29:09.701Z,12.50
2023-04-27T23:31:37.944Z,9.43
2023-04-27T23:34:06.058Z,9.30
2023-04-27T23:36:34.172Z,11.70
2023-04-27T23:39:02.205Z,9.20
2023-04-27T23:41:31.670Z,10.67
2023-04-27T23:43:59.787Z,12.97
2023-04-27T23:46:27.966Z,13.67
2023-04-27T23:48:56.080Z,13.33
2023-04-27T23:51:24.122Z,9.87
2023-04-27T23:53:52.278Z,15.80
2023-04-27T23:56:20.676Z,10.20
2023-04-27T23:58:50.210Z,9.20
